Amboy, MN

10:33 PM CDT on May 29, 2015 (GMT -0500)
Fairmont Municipal | | Change Station
CLOSE
Current Station
Airport
Location: Fairmont,
Elevation: 1161 ft
Nearby Weather Stations

Elev 1161 ft 43.65 °N, 94.42 °W | Updated 18 minutes ago

Overcast
Overcast
54 °F
Feels Like 54 °F
N
22
Wind Variable Wind from North
Gusts 30 mph

Today
High -- | Low -- °F
--% Chance of Precip.
Yesterday
High -- | Low -- °F
Precip. -- in
5:39 AM 8:49 PM
Waxing Gibbous, 87% visible
Pressure 30.04 in
Visibility 8.0 miles
Clouds Overcast 800 ft
Dew Point 48 °F
Humidity 82%
Rainfall 1.79 in
Snow Depth Not available.
UV 0 out of 12
Pollen .80 out of 12
Air Quality Not available.
Flu Activity Sporadic
METAR KFRM 300315Z AUTO 35019G26KT 8SM OVC008 12/09 A3004 RMK AO1

More Conditions Fewer Conditions

Pressure 30.04 in
Visibility 8.0 miles
Clouds Overcast 800 ft
Dew Point 48 °F
Humidity 82%
Rainfall 1.79 in
Snow Depth Not available.
UV 0 out of 12
Pollen .80 out of 12
Air Quality Not available.
Flu Activity Sporadic
METAR KFRM 300315Z AUTO 35019G26KT 8SM OVC008 12/09 A3004 RMK AO1

More Conditions Fewer Conditions

10-Day Weather Forecast

Almanac

Astronomy

May. 29, 2015 Rise Set
Actual Time
Civil Twilight
Nautical Twilight
Astronomical Twilight
Moon
Length of Visible Light
Length of Day
Tomorrow will be .
, % of the Moon is Illuminated

Today's Extremes

State Highs State Lows

Community

WunderPhotos

Upload Photos

1,825,441 photos uploaded!

WunderBlogs® & News

Nearby

Air Quality

  Air Quality AQ Index Pollutant
Not available.

Snow Depth

Station Depth Elevation

Earthquake Activity

City Distance Mag. Time & Date
Minimum magnitude displayed is 2.5.

Coastal Water Temperatures

Place Temperature

Stations

Nearby Weather Stations

Station Location Temp. Windchill Dew Point Humidity Wind Precip. Elev Updated Type